Time;durP1;ratioP1;P1;durP2;ratioP2;P2;SDS_P1;SDS_P2;PMS_P1;PMS_P2;Temp;Humidity;BMP_temperature;BMP_pressure;BME280_temperature;BME280_humidity;BME280_pressure;Samples;Min_cycle;Max_cycle;Signal;HPM_P1;HPM_P2
2022/08/15 00:01:36;;;;;;;6.03;5.07;;;22.10;99.90;;;;;;4995485;28;20675;-64
2022/08/15 00:04:06;;;;;;;7.57;5.43;;;22.10;99.90;;;;;;4995469;28;20207;-64
2022/08/15 00:06:36;;;;;;;6.53;4.87;;;22.10;99.90;;;;;;4995594;28;20219;-63
2022/08/15 00:09:07;;;;;;;5.70;5.13;;;22.10;99.90;;;;;;4995431;28;20228;-65
2022/08/15 00:11:36;;;;;;;7.70;5.43;;;22.10;99.90;;;;;;4995403;28;20231;-65
2022/08/15 00:14:06;;;;;;;6.90;5.00;;;22.20;99.90;;;;;;4995095;28;20207;-65
2022/08/15 00:16:36;;;;;;;7.17;5.10;;;22.20;99.90;;;;;;4994876;28;20708;-64
2022/08/15 00:19:07;;;;;;;5.93;5.33;;;22.20;99.90;;;;;;4995415;28;20221;-65
2022/08/15 00:21:35;;;;;;;6.90;5.70;;;22.10;99.90;;;;;;4995213;28;20228;-65
2022/08/15 00:24:02;;;;;;;5.97;5.07;;;22.20;99.90;;;;;;4995009;28;20212;-64
2022/08/15 00:26:30;;;;;;;5.93;5.17;;;22.20;99.90;;;;;;4994662;28;20212;-65
2022/08/15 00:28:56;;;;;;;5.87;5.27;;;22.20;99.90;;;;;;4994570;28;20707;-64
2022/08/15 00:31:23;;;;;;;7.40;5.50;;;22.20;99.90;;;;;;4994689;28;20278;-64
2022/08/15 00:33:50;;;;;;;7.13;5.43;;;22.20;99.90;;;;;;4994864;28;20590;-65
2022/08/15 00:36:17;;;;;;;7.00;5.80;;;22.20;99.90;;;;;;4994648;28;20266;-65
2022/08/15 00:38:44;;;;;;;9.27;5.60;;;22.30;99.90;;;;;;4994731;28;20208;-64
2022/08/15 00:44:02;;;;;;;9.50;5.60;;;22.20;99.90;;;;;;4993611;28;20274;-64
2022/08/15 00:46:30;;;;;;;7.57;5.03;;;22.30;99.90;;;;;;4994309;28;20207;-65
2022/08/15 00:48:58;;;;;;;8.10;5.90;;;22.30;99.90;;;;;;4994508;28;20227;-65
2022/08/15 00:51:31;;;;;;;8.03;5.30;;;22.30;99.90;;;;;;4994401;28;20211;-65
2022/08/15 00:54:02;;;;;;;6.60;5.70;;;22.30;99.90;;;;;;4994509;28;20303;-65
2022/08/15 00:56:34;;;;;;;7.53;6.33;;;22.30;99.90;;;;;;4994127;28;20575;-65
2022/08/15 00:59:04;;;;;;;7.00;5.70;;;22.30;99.30;;;;;;4994389;28;20262;-65
2022/08/15 01:01:32;;;;;;;8.07;6.03;;;22.30;99.00;;;;;;4994168;28;20208;-65
2022/08/15 01:03:58;;;;;;;11.47;5.90;;;22.30;99.10;;;;;;4994234;28;20229;-64
2022/08/15 01:06:26;;;;;;;6.90;5.40;;;22.40;98.60;;;;;;4993796;28;20319;-65
2022/08/15 01:08:53;;;;;;;6.83;4.80;;;22.40;97.70;;;;;;4994331;28;20220;-64
2022/08/15 01:11:25;;;;;;;8.90;5.67;;;22.50;99.00;;;;;;4994168;28;20291;-65
2022/08/15 01:13:54;;;;;;;7.60;5.40;;;22.50;98.20;;;;;;4994345;28;20208;-64
2022/08/15 01:16:24;;;;;;;6.60;5.70;;;22.50;97.80;;;;;;4993861;28;20212;-64
2022/08/15 01:18:51;;;;;;;7.60;5.80;;;22.50;98.00;;;;;;4994203;28;20200;-63
2022/08/15 01:21:25;;;;;;;7.27;5.50;;;22.50;97.20;;;;;;4993687;28;20369;-64
2022/08/15 01:24:04;;;;;;;12.53;5.87;;;22.50;97.10;;;;;;4994114;28;20208;-64
2022/08/15 01:26:33;;;;;;;7.47;6.00;;;22.50;98.10;;;;;;4993587;28;20274;-64
2022/08/15 01:29:01;;;;;;;7.07;5.70;;;22.50;97.90;;;;;;4993780;28;20223;-63
2022/08/15 01:31:29;;;;;;;7.77;5.43;;;22.50;97.70;;;;;;4993470;28;20702;-64
2022/08/15 01:33:59;;;;;;;5.80;5.20;;;22.50;98.20;;;;;;4993728;28;20211;-64
2022/08/15 01:36:27;;;;;;;8.07;5.40;;;22.40;97.10;;;;;;4993287;28;20745;-64
2022/08/15 01:39:02;;;;;;;5.60;5.00;;;22.50;97.10;;;;;;4993581;28;20208;-63
2022/08/15 01:41:37;;;;;;;6.63;5.13;;;22.50;97.00;;;;;;4993577;28;20811;-64
2022/08/15 01:44:13;;;;;;;5.77;4.93;;;22.50;97.40;;;;;;4993315;28;20210;-64
2022/08/15 01:46:47;;;;;;;6.43;5.03;;;22.50;99.90;;;;;;4993176;28;20666;-64
2022/08/15 01:49:18;;;;;;;7.90;5.17;;;22.50;96.50;;;;;;4993285;28;20223;-64
2022/08/15 01:51:45;;;;;;;5.30;4.80;;;22.50;97.00;;;;;;4993298;28;20227;-64
2022/08/15 01:54:15;;;;;;;7.77;5.13;;;22.50;96.60;;;;;;4992973;28;20211;-64
2022/08/15 01:56:47;;;;;;;5.57;4.97;;;22.50;96.60;;;;;;4992969;28;20303;-64
2022/08/15 01:59:18;;;;;;;5.63;4.93;;;22.50;96.70;;;;;;4993285;28;20207;-64
2022/08/15 02:01:47;;;;;;;7.93;5.53;;;22.50;96.10;;;;;;4993354;28;20278;-64
2022/08/15 02:04:17;;;;;;;6.00;5.07;;;22.50;95.30;;;;;;4993274;28;20208;-65
2022/08/15 02:06:44;;;;;;;7.40;4.70;;;22.50;95.00;;;;;;4992732;28;20208;-64
2022/08/15 02:09:17;;;;;;;5.57;5.03;;;22.50;95.50;;;;;;4992880;28;20671;-64
2022/08/15 02:11:45;;;;;;;6.17;4.87;;;22.40;95.10;;;;;;4992988;28;20238;-65
2022/08/15 02:14:13;;;;;;;5.63;4.87;;;22.30;95.30;;;;;;4992948;28;20214;-64
2022/08/15 02:16:41;;;;;;;6.47;4.33;;;22.20;94.00;;;;;;4992531;28;20227;-65
2022/08/15 02:19:10;;;;;;;5.20;4.70;;;22.20;92.70;;;;;;4993024;28;20380;-65
2022/08/15 02:21:39;;;;;;;7.00;5.07;;;22.20;92.40;;;;;;4992672;28;20251;-64
2022/08/15 02:24:17;;;;;;;7.30;4.87;;;22.10;91.00;;;;;;4992941;28;20211;-64
2022/08/15 02:26:45;;;;;;;8.73;4.33;;;22.10;91.10;;;;;;4992546;28;20211;-64
2022/08/15 02:29:12;;;;;;;4.57;4.07;;;22.10;90.50;;;;;;4992826;28;20783;-64
2022/08/15 02:31:39;;;;;;;7.50;4.17;;;22.10;89.40;;;;;;4992533;28;20322;-64
2022/08/15 02:34:06;;;;;;;5.50;4.03;;;22.00;90.00;;;;;;4992572;28;20265;-64
2022/08/15 02:36:35;;;;;;;5.53;4.37;;;22.00;90.00;;;;;;4992170;28;20725;-64
2022/08/15 02:39:05;;;;;;;10.00;4.13;;;22.00;88.90;;;;;;4992774;28;20681;-64
2022/08/15 02:41:34;;;;;;;6.40;5.03;;;21.90;86.60;;;;;;4992561;28;20217;-64
2022/08/15 02:44:03;;;;;;;6.20;4.17;;;21.90;87.30;;;;;;4992670;28;20266;-64
2022/08/15 02:46:30;;;;;;;4.83;4.00;;;21.90;88.20;;;;;;4992020;28;20274;-64
2022/08/15 02:48:58;;;;;;;4.70;4.10;;;21.90;86.20;;;;;;4992586;28;20231;-64
2022/08/15 02:51:26;;;;;;;4.60;4.10;;;21.90;86.50;;;;;;4992340;28;20302;-64
2022/08/15 02:53:54;;;;;;;6.03;4.13;;;21.90;86.80;;;;;;4992577;28;20215;-64
2022/08/15 02:56:24;;;;;;;8.20;4.37;;;22.00;88.90;;;;;;4991936;28;20682;-65
2022/08/15 02:58:51;;;;;;;5.97;4.53;;;22.00;86.90;;;;;;4992399;28;20211;-65
2022/08/15 03:01:21;;;;;;;8.20;3.97;;;21.90;87.20;;;;;;4992108;28;20212;-65
2022/08/15 03:03:50;;;;;;;4.07;3.67;;;21.80;91.80;;;;;;4992818;28;20234;-65
2022/08/15 03:06:21;;;;;;;8.70;3.90;;;21.80;86.30;;;;;;4992388;28;20216;-65
2022/08/15 03:08:48;;;;;;;5.13;4.03;;;21.80;87.70;;;;;;4996440;28;20207;-65
2022/08/15 03:11:15;;;;;;;4.93;3.83;;;21.80;87.40;;;;;;4996319;28;20215;-65
2022/08/15 03:13:42;;;;;;;5.33;4.30;;;21.70;88.40;;;;;;4996025;28;20673;-64
2022/08/15 03:16:09;;;;;;;10.23;3.53;;;21.70;87.40;;;;;;4996239;28;20266;-65
2022/08/15 03:18:42;;;;;;;5.30;4.03;;;21.60;89.40;;;;;;4996305;28;20644;-65
2022/08/15 03:21:12;;;;;;;4.60;4.00;;;21.60;88.70;;;;;;4996299;28;20214;-65
2022/08/15 03:23:46;;;;;;;5.87;4.00;;;21.60;90.20;;;;;;4996132;28;20212;-65
2022/08/15 03:26:12;;;;;;;6.03;3.80;;;21.60;89.30;;;;;;4995680;28;20591;-65
2022/08/15 03:28:39;;;;;;;5.30;4.13;;;21.50;88.80;;;;;;4996049;28;20211;-64
2022/08/15 03:31:07;;;;;;;6.13;3.70;;;21.50;89.10;;;;;;4995899;28;20227;-65
2022/08/15 03:33:35;;;;;;;6.23;3.30;;;21.40;88.30;;;;;;4995886;28;20243;-65
2022/08/15 03:36:04;;;;;;;7.77;3.60;;;21.40;87.50;;;;;;4995569;28;20637;-65
2022/08/15 03:38:30;;;;;;;5.60;3.93;;;21.30;87.30;;;;;;4995468;28;20211;-64
2022/08/15 03:40:57;;;;;;;6.60;3.93;;;21.30;87.20;;;;;;4995760;28;20204;-65
2022/08/15 03:43:27;;;;;;;3.80;3.37;;;21.30;87.30;;;;;;4995842;28;20285;-64
2022/08/15 03:45:57;;;;;;;7.13;4.67;;;21.30;88.20;;;;;;4995486;28;20266;-65
2022/08/15 03:48:25;;;;;;;4.20;3.53;;;21.20;88.70;;;;;;4995588;28;20556;-65
2022/08/15 03:50:53;;;;;;;6.40;3.50;;;21.20;87.70;;;;;;4995486;28;20231;-63
2022/08/15 03:53:22;;;;;;;4.80;3.83;;;21.20;90.40;;;;;;4995696;28;20232;-63
2022/08/15 03:55:49;;;;;;;3.73;3.43;;;21.20;89.50;;;;;;4995877;28;20210;-64
2022/08/15 03:58:16;;;;;;;4.20;3.57;;;21.20;88.50;;;;;;4995260;28;20678;-64
2022/08/15 04:00:46;;;;;;;13.83;8.10;;;21.20;90.40;;;;;;4995362;28;20254;-64
2022/08/15 04:03:15;;;;;;;4.40;3.73;;;21.10;88.90;;;;;;4995429;28;20231;-64
2022/08/15 04:05:49;;;;;;;5.63;3.07;;;21.20;89.90;;;;;;4995036;28;20841;-63
2022/08/15 04:08:18;;;;;;;6.10;3.50;;;21.20;90.60;;;;;;4995283;28;20297;-63
2022/08/15 04:10:49;;;;;;;5.47;3.47;;;21.20;90.40;;;;;;4995403;28;20320;-64
2022/08/15 04:13:18;;;;;;;5.60;3.30;;;21.20;90.20;;;;;;4995261;28;20227;-64
2022/08/15 04:15:45;;;;;;;5.63;3.33;;;21.10;90.20;;;;;;4995131;28;20207;-64
2022/08/15 04:18:11;;;;;;;4.67;3.20;;;21.20;91.10;;;;;;4994679;28;20211;-64
2022/08/15 04:20:38;;;;;;;5.40;3.40;;;21.20;90.40;;;;;;4995305;28;20208;-65
2022/08/15 04:23:06;;;;;;;9.50;3.37;;;21.10;90.40;;;;;;4995034;28;20318;-65
2022/08/15 04:25:35;;;;;;;5.40;3.10;;;21.10;91.60;;;;;;4995444;28;20266;-64
2022/08/15 04:28:04;;;;;;;5.83;3.07;;;21.10;90.90;;;;;;4994858;28;20211;-64
2022/08/15 04:30:34;;;;;;;4.00;3.10;;;21.20;91.70;;;;;;4995092;28;20227;-65
2022/08/15 04:33:08;;;;;;;4.33;2.97;;;21.20;90.50;;;;;;4994807;28;20227;-65
2022/08/15 04:35:35;;;;;;;5.77;3.13;;;21.30;91.70;;;;;;4995129;28;20236;-64
2022/08/15 04:38:02;;;;;;;4.80;2.77;;;21.30;91.60;;;;;;4994503;28;20238;-64
2022/08/15 04:40:30;;;;;;;6.27;3.03;;;21.30;92.10;;;;;;4994924;28;20684;-64
2022/08/15 04:42:58;;;;;;;5.70;3.10;;;21.40;90.90;;;;;;4994679;28;20595;-64
2022/08/15 04:45:27;;;;;;;5.67;3.00;;;21.50;92.50;;;;;;4994617;28;20211;-64
2022/08/15 04:47:54;;;;;;;8.57;3.40;;;21.50;91.90;;;;;;4994296;28;20254;-64
2022/08/15 04:50:21;;;;;;;6.80;2.90;;;21.50;92.30;;;;;;4994624;28;20298;-65
2022/08/15 04:52:51;;;;;;;3.87;2.77;;;21.50;91.60;;;;;;4994471;28;20228;-65
2022/08/15 04:55:19;;;;;;;6.37;3.17;;;21.60;91.50;;;;;;4994275;28;20664;-64
2022/08/15 04:57:46;;;;;;;6.23;2.93;;;21.60;92.90;;;;;;4993921;28;20274;-64
2022/08/15 05:00:17;;;;;;;6.67;2.73;;;21.60;92.00;;;;;;4994576;28;20212;-64
2022/08/15 05:02:58;;;;;;;3.87;3.10;;;21.60;93.70;;;;;;4994346;28;20581;-65
2022/08/15 05:05:25;;;;;;;7.70;3.00;;;21.60;93.40;;;;;;4994351;28;20215;-64
2022/08/15 05:07:51;;;;;;;8.00;3.20;;;21.60;93.90;;;;;;4993913;28;20207;-65
2022/08/15 05:10:18;;;;;;;5.30;2.90;;;21.60;93.40;;;;;;4993971;28;20219;-65
2022/08/15 05:12:45;;;;;;;11.50;3.17;;;21.60;94.40;;;;;;4994130;28;20232;-64
2022/08/15 05:15:13;;;;;;;8.20;3.07;;;21.60;93.90;;;;;;4994187;28;20207;-65
2022/08/15 05:17:40;;;;;;;10.13;3.17;;;21.60;93.40;;;;;;4993717;28;20678;-64
2022/08/15 05:20:09;;;;;;;5.53;2.87;;;21.60;94.20;;;;;;4994034;28;20607;-65
2022/08/15 05:22:36;;;;;;;5.97;3.00;;;21.60;94.20;;;;;;4993902;28;20285;-65
2022/08/15 05:25:03;;;;;;;6.73;3.10;;;21.60;93.70;;;;;;4993569;28;20258;-65
2022/08/15 05:27:30;;;;;;;7.13;2.90;;;21.60;93.80;;;;;;4993423;28;20251;-65
2022/08/15 05:29:58;;;;;;;3.67;2.77;;;21.60;95.20;;;;;;4993045;28;20227;-65
2022/08/15 05:32:24;;;;;;;7.43;2.80;;;21.70;94.00;;;;;;4993762;28;20242;-64
2022/08/15 05:34:51;;;;;;;5.43;2.73;;;21.70;93.20;;;;;;4993541;28;20269;-64
2022/08/15 05:37:19;;;;;;;6.83;2.83;;;21.70;93.50;;;;;;4993261;28;20737;-64
2022/08/15 05:39:46;;;;;;;4.00;2.53;;;21.70;94.80;;;;;;4993625;28;20674;-65
2022/08/15 05:42:22;;;;;;;6.07;2.77;;;21.80;94.70;;;;;;4993516;28;20231;-65
2022/08/15 05:44:56;;;;;;;4.47;2.73;;;21.80;94.30;;;;;;4993615;28;20214;-65
2022/08/15 05:47:34;;;;;;;6.23;2.80;;;21.80;95.00;;;;;;4993118;28;20294;-64
2022/08/15 05:50:08;;;;;;;5.87;2.83;;;21.80;94.20;;;;;;4993324;28;20812;-65
2022/08/15 05:52:48;;;;;;;5.10;2.80;;;21.90;96.30;;;;;;4993187;28;20226;-65
2022/08/15 05:55:20;;;;;;;3.70;2.33;;;21.90;95.10;;;;;;4993419;28;20203;-65
2022/08/15 05:58:01;;;;;;;4.33;2.27;;;21.90;95.00;;;;;;4992941;28;20234;-64
2022/08/15 06:00:30;;;;;;;4.17;2.37;;;21.90;97.00;;;;;;4993115;28;20203;-65
2022/08/15 06:03:02;;;;;;;4.63;2.63;;;21.90;97.50;;;;;;4993194;28;20230;-64
2022/08/15 06:05:33;;;;;;;6.87;2.53;;;21.90;96.90;;;;;;4993167;28;20229;-64
2022/08/15 06:08:08;;;;;;;4.43;2.50;;;21.90;97.10;;;;;;4992557;28;20207;-64
2022/08/15 06:10:39;;;;;;;5.97;2.90;;;22.00;97.90;;;;;;4992961;28;20227;-64
2022/08/15 06:13:11;;;;;;;7.33;2.57;;;22.00;97.70;;;;;;4992701;28;20227;-65
2022/08/15 06:15:47;;;;;;;6.07;2.90;;;22.00;97.80;;;;;;4992853;28;20578;-65
2022/08/15 06:18:18;;;;;;;4.73;2.93;;;22.10;97.50;;;;;;4992484;28;20674;-64
2022/08/15 06:20:51;;;;;;;4.07;2.40;;;22.10;99.90;;;;;;4992683;28;20262;-64
2022/08/15 06:23:30;;;;;;;7.07;2.83;;;22.10;97.60;;;;;;4992611;28;20235;-65
2022/08/15 06:26:08;;;;;;;5.30;2.57;;;22.20;98.80;;;;;;4992547;28;20215;-65
2022/08/15 06:28:57;;;;;;;7.57;2.87;;;22.30;99.70;;;;;;4992617;28;20269;-64
2022/08/15 06:31:31;;;;;;;4.97;2.50;;;22.30;99.50;;;;;;4992379;28;20231;-65
2022/08/15 06:34:06;;;;;;;6.30;2.70;;;22.30;99.50;;;;;;4993052;28;20222;-64
2022/08/15 06:36:43;;;;;;;5.80;2.90;;;22.20;99.40;;;;;;4993250;28;20206;-65
2022/08/15 06:39:21;;;;;;;4.67;3.03;;;22.30;99.90;;;;;;4993864;28;20204;-64
2022/08/15 06:41:56;;;;;;;5.23;2.40;;;22.30;98.60;;;;;;4993254;28;20227;-64
2022/08/15 06:44:24;;;;;;;4.07;2.77;;;22.30;99.90;;;;;;4994422;28;20289;-64
2022/08/15 06:46:52;;;;;;;4.63;2.67;;;22.30;99.90;;;;;;4993517;28;20207;-64
2022/08/15 06:49:21;;;;;;;3.87;2.30;;;22.30;99.60;;;;;;4993643;28;20212;-64
2022/08/15 06:51:48;;;;;;;6.30;2.50;;;22.30;99.90;;;;;;4992830;28;20286;-65
2022/08/15 06:54:24;;;;;;;5.40;2.53;;;22.30;99.90;;;;;;4992364;28;20298;-65
2022/08/15 06:56:57;;;;;;;3.60;2.30;;;22.30;99.90;;;;;;4992160;28;20918;-64
2022/08/15 06:59:33;;;;;;;4.27;2.63;;;22.40;99.90;;;;;;4992604;28;20299;-65
2022/08/15 07:02:14;;;;;;;3.30;2.13;;;22.40;99.90;;;;;;4992568;28;20847;-64
2022/08/15 07:04:53;;;;;;;4.57;2.37;;;22.40;99.90;;;;;;4992302;28;20242;-64
2022/08/15 07:07:34;;;;;;;4.93;2.40;;;22.50;99.90;;;;;;4992004;28;20667;-65
2022/08/15 07:10:11;;;;;;;4.03;2.40;;;22.40;99.90;;;;;;4992336;28;20207;-65
2022/08/15 07:12:45;;;;;;;2.73;2.13;;;22.50;99.90;;;;;;4992231;28;20227;-65
2022/08/15 07:15:18;;;;;;;4.17;2.40;;;22.50;99.90;;;;;;4992145;28;20262;-65
2022/08/15 07:17:49;;;;;;;3.67;2.00;;;22.50;99.90;;;;;;4992118;28;20269;-65
2022/08/15 07:20:17;;;;;;;3.20;2.03;;;22.50;99.90;;;;;;4992359;28;20207;-65
2022/08/15 07:22:43;;;;;;;3.30;2.07;;;22.50;99.90;;;;;;4992176;28;20302;-64
2022/08/15 07:25:14;;;;;;;8.80;2.60;;;22.50;99.90;;;;;;4992178;28;20211;-64
2022/08/15 07:27:41;;;;;;;4.27;2.53;;;22.60;99.90;;;;;;4991573;28;20277;-64
2022/08/15 07:30:18;;;;;;;7.73;2.53;;;22.70;99.90;;;;;;4991948;28;20250;-64
2022/08/15 07:32:51;;;;;;;6.90;2.20;;;22.60;99.90;;;;;;4991750;28;20231;-65
2022/08/15 07:35:23;;;;;;;3.93;2.23;;;22.60;99.90;;;;;;4992180;28;20212;-64
2022/08/15 07:37:58;;;;;;;5.23;2.03;;;22.70;99.90;;;;;;4991733;28;20298;-65
2022/08/15 07:40:31;;;;;;;7.90;2.30;;;22.70;99.90;;;;;;4991962;28;20719;-64
2022/08/15 07:43:00;;;;;;;4.07;2.30;;;22.80;99.90;;;;;;4991939;28;20661;-65
2022/08/15 07:45:30;;;;;;;3.50;2.20;;;22.80;99.90;;;;;;4992078;28;20662;-65
2022/08/15 07:48:00;;;;;;;6.40;2.47;;;22.80;99.90;;;;;;4991500;28;20262;-65
2022/08/15 07:50:34;;;;;;;2.67;2.20;;;22.90;99.90;;;;;;4991873;28;20711;-64
2022/08/15 07:53:10;;;;;;;4.33;2.57;;;23.00;99.90;;;;;;4993004;28;20322;-64
2022/08/15 07:55:39;;;;;;;4.90;2.40;;;23.10;99.90;;;;;;4995783;28;20612;-65
2022/08/15 07:58:14;;;;;;;5.50;2.57;;;23.20;99.90;;;;;;4995005;28;20713;-64
2022/08/15 08:00:41;;;;;;;4.37;2.30;;;23.10;99.90;;;;;;4995446;28;20207;-64
2022/08/15 08:03:14;;;;;;;6.57;2.50;;;23.20;99.90;;;;;;4995177;28;20285;-64
2022/08/15 08:05:50;;;;;;;3.03;2.67;;;23.20;99.90;;;;;;4995581;28;20211;-64
2022/08/15 08:08:19;;;;;;;6.50;2.80;;;23.30;99.90;;;;;;4995963;28;20207;-64
2022/08/15 08:10:56;;;;;;;7.27;2.80;;;23.50;99.90;;;;;;4995319;28;20224;-64
2022/08/15 08:13:35;;;;;;;5.33;2.67;;;23.60;99.90;;;;;;4995084;28;20237;-64
2022/08/15 08:16:07;;;;;;;5.90;2.30;;;23.70;99.90;;;;;;4994768;28;20210;-64
2022/08/15 08:18:47;;;;;;;4.70;2.67;;;23.60;99.90;;;;;;4995354;28;20207;-64
2022/08/15 08:21:18;;;;;;;4.13;2.60;;;23.60;99.90;;;;;;4995199;28;20208;-64
2022/08/15 08:23:48;;;;;;;6.87;2.43;;;23.60;99.90;;;;;;4995032;28;20214;-64
2022/08/15 08:26:30;;;;;;;9.80;2.80;;;23.20;99.90;;;;;;4994474;28;20682;-64
2022/08/15 08:29:05;;;;;;;2.93;2.30;;;23.20;99.90;;;;;;4995059;28;20247;-65
2022/08/15 08:31:42;;;;;;;5.47;2.37;;;23.10;99.90;;;;;;4994742;28;20235;-64
2022/08/15 08:34:18;;;;;;;4.10;2.60;;;23.10;99.90;;;;;;4994924;28;20258;-65
2022/08/15 08:36:53;;;;;;;4.00;2.53;;;23.10;99.90;;;;;;4994266;28;20216;-63
2022/08/15 08:39:37;;;;;;;3.70;2.50;;;23.10;99.90;;;;;;4994450;28;20213;-62
2022/08/15 08:42:16;;;;;;;4.80;2.50;;;23.00;99.90;;;;;;4994642;28;20227;-63
2022/08/15 08:44:50;;;;;;;4.63;2.67;;;23.10;99.90;;;;;;4994763;28;20203;-63
2022/08/15 08:47:49;;;;;;;6.20;2.80;;;23.10;99.90;;;;;;4994461;28;20242;-62
2022/08/15 08:50:25;;;;;;;2.70;2.23;;;23.30;99.90;;;;;;4994672;28;20223;-64
2022/08/15 08:53:02;;;;;;;6.47;2.47;;;23.30;99.90;;;;;;4994242;28;20228;-65
2022/08/15 08:55:32;;;;;;;7.00;2.60;;;23.30;99.90;;;;;;4994314;28;20207;-64
2022/08/15 08:58:05;;;;;;;3.90;2.50;;;23.40;99.90;;;;;;4984726;28;20242;-65
2022/08/15 09:00:38;;;;;;;7.23;2.50;;;23.50;99.90;;;;;;5011505;28;20222;-68
2022/08/15 09:03:14;;;;;;;5.80;2.50;;;23.60;99.90;;;;;;4997364;28;20224;-65
2022/08/15 09:05:51;;;;;;;5.80;2.57;;;23.60;99.90;;;;;;4993136;28;20239;-65
2022/08/15 09:08:24;;;;;;;4.63;2.57;;;23.70;99.90;;;;;;4994209;28;20207;-64
2022/08/15 09:10:55;;;;;;;4.47;2.90;;;23.60;99.90;;;;;;4994447;28;20231;-64
2022/08/15 09:13:34;;;;;;;9.10;3.10;;;23.50;99.90;;;;;;4993942;28;20666;-64
2022/08/15 09:16:08;;;;;;;3.20;2.53;;;23.60;99.90;;;;;;4993757;28;20635;-64
2022/08/15 09:18:40;;;;;;;6.03;2.77;;;23.60;99.90;;;;;;4994329;28;20207;-65
2022/08/15 09:21:07;;;;;;;3.40;2.60;;;23.50;99.90;;;;;;4994032;28;20208;-64
2022/08/15 09:23:37;;;;;;;6.70;3.13;;;23.60;99.90;;;;;;4993845;28;20231;-64
2022/08/15 09:26:13;;;;;;;5.13;2.87;;;23.60;99.90;;;;;;4993702;28;20203;-64
2022/08/15 09:28:43;;;;;;;5.10;2.83;;;23.70;99.90;;;;;;4994027;28;20282;-64
2022/08/15 09:31:14;;;;;;;6.90;2.90;;;23.70;99.90;;;;;;4993673;28;20286;-64
2022/08/15 09:34:16;;;;;;;5.27;2.83;;;23.80;99.90;;;;;;4994084;28;20211;-64
2022/08/15 09:37:12;;;;;;;6.30;2.70;;;23.90;99.90;;;;;;4960303;28;20207;-64
2022/08/15 09:39:59;;;;;;;7.50;3.10;;;24.00;99.90;;;;;;4993760;28;20211;-65
2022/08/15 09:42:52;;;;;;;4.60;2.63;;;24.00;99.90;;;;;;4993518;28;20725;-64
2022/08/15 09:45:36;;;;;;;8.30;2.90;;;24.10;99.90;;;;;;4993595;28;20207;-64
2022/08/15 09:48:17;;;;;;;5.83;3.00;;;24.20;99.90;;;;;;4993556;28;20211;-65
2022/08/15 09:51:00;;;;;;;8.33;3.63;;;24.30;99.90;;;;;;4993252;28;20258;-64
2022/08/15 09:53:36;;;;;;;5.97;3.37;;;24.40;99.90;;;;;;4993291;28;20228;-63
2022/08/15 09:56:05;;;;;;;5.03;2.87;;;24.60;99.90;;;;;;4993023;28;20670;-64
2022/08/15 09:58:36;;;;;;;6.07;2.77;;;24.70;99.90;;;;;;4993376;28;20567;-64
2022/08/15 10:01:10;;;;;;;5.77;2.90;;;24.80;99.90;;;;;;4993308;28;20204;-64
2022/08/15 10:03:52;;;;;;;5.70;2.80;;;24.90;99.90;;;;;;4993162;28;20228;-64
2022/08/15 10:06:23;;;;;;;7.40;3.23;;;25.00;99.90;;;;;;4992959;28;20262;-64
2022/08/15 10:09:14;;;;;;;8.13;3.20;;;25.10;99.90;;;;;;4993216;28;20215;-64
2022/08/15 10:12:03;;;;;;;4.30;3.20;;;24.90;99.90;;;;;;4984248;28;20285;-65
2022/08/15 10:14:42;;;;;;;6.70;3.43;;;25.10;99.90;;;;;;4993689;28;20204;-67
2022/08/15 10:17:25;;;;;;;10.33;3.07;;;25.20;99.90;;;;;;4991965;28;20699;-64
2022/08/15 10:19:52;;;;;;;6.13;3.57;;;25.30;99.90;;;;;;4992630;28;20208;-65
2022/08/15 10:22:48;;;;;;;4.87;3.00;;;25.20;99.90;;;;;;4992659;28;20227;-65
2022/08/15 10:25:26;;;;;;;4.37;3.27;;;25.30;99.90;;;;;;4983728;28;20208;-66
2022/08/15 10:28:06;;;;;;;6.30;2.97;;;25.30;99.90;;;;;;4992300;28;20204;-65
2022/08/15 10:30:35;;;;;;;9.90;3.20;;;25.50;99.90;;;;;;4992847;28;20254;-66
2022/08/15 10:33:26;;;;;;;5.80;3.37;;;25.50;99.90;;;;;;4992996;28;20389;-65
2022/08/15 10:35:55;;;;;;;8.27;4.10;;;25.60;99.90;;;;;;4991742;28;20690;-65
2022/08/15 10:38:28;;;;;;;5.77;3.40;;;25.80;99.90;;;;;;4992206;28;20231;-63
2022/08/15 10:41:00;;;;;;;11.33;3.57;;;25.70;99.90;;;;;;4992395;28;20588;-63
2022/08/15 10:44:01;;;;;;;3.97;2.97;;;25.50;99.90;;;;;;4989869;28;20224;-63
2022/08/15 10:46:42;;;;;;;7.10;3.30;;;25.70;99.90;;;;;;4991939;28;20211;-63
2022/08/15 10:49:22;;;;;;;10.20;3.13;;;25.80;99.90;;;;;;4992078;28;20679;-64
2022/08/15 10:52:14;;;;;;;5.17;2.77;;;25.90;99.90;;;;;;4991836;28;20238;-64
2022/08/15 10:55:01;;;;;;;6.07;3.67;;;25.80;99.90;;;;;;4991978;28;20246;-63
2022/08/15 10:57:47;;;;;;;6.80;3.47;;;25.70;99.90;;;;;;4991678;28;20208;-64
2022/08/15 11:00:17;;;;;;;5.40;3.40;;;25.90;99.90;;;;;;4991919;28;20211;-63
2022/08/15 11:02:49;;;;;;;5.90;3.67;;;25.80;99.90;;;;;;4992088;28;20781;-63
2022/08/15 11:05:20;;;;;;;6.20;3.20;;;25.80;99.90;;;;;;4991855;28;20203;-63
2022/08/15 11:07:50;;;;;;;6.80;3.20;;;25.60;99.90;;;;;;4991742;28;20234;-63
2022/08/15 11:10:18;;;;;;;5.63;3.10;;;25.80;99.90;;;;;;4991996;28;20208;-63
2022/08/15 11:12:48;;;;;;;6.77;3.50;;;25.90;99.90;;;;;;4991352;28;20706;-63
2022/08/15 11:15:19;;;;;;;6.57;2.90;;;26.00;99.90;;;;;;4991892;28;20233;-64
2022/08/15 11:17:50;;;;;;;6.77;3.07;;;26.00;99.90;;;;;;4991414;28;20207;-63
2022/08/15 11:20:24;;;;;;;5.50;3.20;;;26.20;99.90;;;;;;4991999;28;20294;-64
2022/08/15 11:22:53;;;;;;;7.10;3.63;;;25.80;99.90;;;;;;4991736;28;20227;-63
2022/08/15 11:25:24;;;;;;;4.70;2.80;;;25.80;99.90;;;;;;4989292;28;20234;-64
2022/08/15 11:28:03;;;;;;;6.97;3.17;;;25.70;99.90;;;;;;4993046;28;20199;-64
2022/08/15 11:30:32;;;;;;;4.93;3.37;;;25.60;99.90;;;;;;4995925;28;20210;-64
2022/08/15 11:33:17;;;;;;;5.87;3.30;;;25.50;99.90;;;;;;4995342;28;20262;-63
2022/08/15 11:35:45;;;;;;;6.20;3.17;;;25.50;99.90;;;;;;4995175;28;20208;-62
2022/08/15 11:38:16;;;;;;;9.13;3.63;;;25.70;99.90;;;;;;4994156;28;20632;-62
2022/08/15 11:40:43;;;;;;;7.63;3.30;;;25.80;99.90;;;;;;4986209;28;20243;-63
2022/08/15 11:43:16;;;;;;;9.37;3.30;;;25.70;99.90;;;;;;4994882;28;20665;-64
2022/08/15 11:45:48;;;;;;;7.40;2.97;;;26.00;99.90;;;;;;4995096;28;20204;-66
2022/08/15 11:48:20;;;;;;;6.80;3.23;;;26.10;99.90;;;;;;4994770;28;20208;-64
2022/08/15 11:50:59;;;;;;;6.93;3.50;;;26.20;99.90;;;;;;4995334;28;20826;-64
2022/08/15 11:53:30;;;;;;;8.07;3.90;;;26.20;99.90;;;;;;4995245;28;20239;-64
2022/08/15 11:55:57;;;;;;;6.43;3.73;;;25.60;99.90;;;;;;4991929;28;20625;-64
2022/08/15 11:58:32;;;;;;;9.63;3.93;;;25.50;99.90;;;;;;4996174;28;20211;-63
2022/08/15 12:01:00;;;;;;;9.40;3.77;;;25.40;99.90;;;;;;4995583;28;20208;-64
2022/08/15 12:03:31;;;;;;;9.20;3.67;;;25.50;99.90;;;;;;4994807;28;20749;-63
2022/08/15 12:06:21;;;;;;;6.77;3.90;;;25.50;99.90;;;;;;4994956;28;20294;-64
2022/08/15 12:08:49;;;;;;;8.93;3.60;;;25.60;99.90;;;;;;4994925;28;20303;-66
2022/08/15 12:11:18;;;;;;;5.37;4.13;;;25.20;99.90;;;;;;4994961;28;20262;-64
2022/08/15 12:13:56;;;;;;;6.13;4.20;;;24.60;99.90;;;;;;4994906;28;20227;-62
2022/08/15 12:16:27;;;;;;;7.03;3.63;;;24.80;99.90;;;;;;4994704;28;20305;-62
2022/08/15 12:18:54;;;;;;;9.17;3.87;;;24.70;99.90;;;;;;4994760;28;20204;-63
2022/08/15 12:21:23;;;;;;;6.43;4.20;;;24.80;99.90;;;;;;4994959;28;20746;-63
2022/08/15 12:23:54;;;;;;;5.63;3.70;;;24.70;99.90;;;;;;4994670;28;20254;-62
2022/08/15 12:26:22;;;;;;;10.97;4.70;;;24.80;99.90;;;;;;4994888;28;20262;-63
2022/08/15 12:28:49;;;;;;;6.90;3.60;;;24.90;99.90;;;;;;4994119;28;20657;-63
2022/08/15 12:31:22;;;;;;;6.10;3.80;;;25.00;99.90;;;;;;4994804;28;20223;-62
2022/08/15 12:34:01;;;;;;;6.97;3.80;;;25.10;99.90;;;;;;4994722;28;20254;-64
2022/08/15 12:36:30;;;;;;;11.83;5.13;;;25.10;99.90;;;;;;4994091;28;20215;-63
2022/08/15 12:38:56;;;;;;;6.90;3.93;;;25.00;99.90;;;;;;4994717;28;20212;-63
2022/08/15 12:41:24;;;;;;;4.97;3.77;;;25.00;99.90;;;;;;4994352;28;20219;-64
2022/08/15 12:43:51;;;;;;;7.40;4.07;;;24.90;99.90;;;;;;4994591;28;20276;-63
2022/08/15 12:46:18;;;;;;;7.27;3.60;;;25.10;99.90;;;;;;4994006;28;20211;-65
2022/08/15 12:48:46;;;;;;;5.20;3.80;;;25.30;99.90;;;;;;4994251;28;20861;-62
2022/08/15 12:51:13;;;;;;;9.50;4.07;;;25.10;99.90;;;;;;4994118;28;20211;-63
2022/08/15 12:53:41;;;;;;;5.87;3.57;;;25.20;99.90;;;;;;4994150;28;20240;-63
2022/08/15 12:56:09;;;;;;;7.60;4.17;;;25.00;99.90;;;;;;4993666;28;20208;-63
2022/08/15 12:58:36;;;;;;;6.80;4.00;;;25.00;99.90;;;;;;4994432;28;20212;-63
2022/08/15 13:01:10;;;;;;;7.33;3.83;;;25.10;99.90;;;;;;4994315;28;20298;-64
2022/08/15 13:03:42;;;;;;;8.67;3.93;;;25.20;99.90;;;;;;4994223;28;20601;-65
2022/08/15 13:06:14;;;;;;;5.70;4.07;;;25.20;99.90;;;;;;4994120;28;20569;-63
2022/08/15 13:08:42;;;;;;;7.27;3.70;;;25.20;99.90;;;;;;4993852;28;20698;-63
2022/08/15 13:11:10;;;;;;;7.50;3.70;;;25.10;99.90;;;;;;4985503;28;20306;-62
2022/08/15 13:13:37;;;;;;;6.13;3.83;;;25.10;99.90;;;;;;4990277;28;20223;-62